sensor_id;sensor_type;location;lat;lon;timestamp;P1;durP1;ratioP1;P2;durP2;ratioP2
15526;SDS011;7865;50.918;4.510;2023-04-06T00:03:48;16.97;;;10.23;;
15526;SDS011;7865;50.918;4.510;2023-04-06T00:08:50;19.43;;;10.60;;
15526;SDS011;7865;50.918;4.510;2023-04-06T00:13:52;18.23;;;10.40;;
15526;SDS011;7865;50.918;4.510;2023-04-06T00:18:54;18.37;;;10.27;;
15526;SDS011;7865;50.918;4.510;2023-04-06T00:23:56;17.60;;;9.77;;
15526;SDS011;7865;50.918;4.510;2023-04-06T00:28:59;19.03;;;10.83;;
15526;SDS011;7865;50.918;4.510;2023-04-06T00:34:01;16.30;;;9.67;;
15526;SDS011;7865;50.918;4.510;2023-04-06T00:39:03;18.07;;;9.87;;
15526;SDS011;7865;50.918;4.510;2023-04-06T00:44:05;16.17;;;8.60;;
15526;SDS011;7865;50.918;4.510;2023-04-06T00:49:07;17.57;;;9.90;;
15526;SDS011;7865;50.918;4.510;2023-04-06T00:54:10;14.50;;;8.77;;
15526;SDS011;7865;50.918;4.510;2023-04-06T00:59:13;15.50;;;9.60;;
15526;SDS011;7865;50.918;4.510;2023-04-06T01:04:16;18.33;;;9.80;;
15526;SDS011;7865;50.918;4.510;2023-04-06T01:09:18;16.70;;;9.00;;
15526;SDS011;7865;50.918;4.510;2023-04-06T01:14:21;17.90;;;9.33;;
15526;SDS011;7865;50.918;4.510;2023-04-06T01:19:30;14.93;;;8.20;;
15526;SDS011;7865;50.918;4.510;2023-04-06T01:24:33;14.57;;;8.67;;
15526;SDS011;7865;50.918;4.510;2023-04-06T01:29:41;16.87;;;8.63;;
15526;SDS011;7865;50.918;4.510;2023-04-06T01:34:49;13.03;;;9.47;;
15526;SDS011;7865;50.918;4.510;2023-04-06T01:39:51;17.20;;;9.83;;
15526;SDS011;7865;50.918;4.510;2023-04-06T01:45:07;19.63;;;10.20;;
15526;SDS011;7865;50.918;4.510;2023-04-06T01:50:09;14.67;;;9.73;;
15526;SDS011;7865;50.918;4.510;2023-04-06T01:55:17;18.30;;;11.13;;
15526;SDS011;7865;50.918;4.510;2023-04-06T02:00:45;15.50;;;9.83;;
15526;SDS011;7865;50.918;4.510;2023-04-06T02:05:48;15.80;;;9.90;;
15526;SDS011;7865;50.918;4.510;2023-04-06T02:10:59;17.67;;;10.23;;
15526;SDS011;7865;50.918;4.510;2023-04-06T02:16:10;15.87;;;10.00;;
15526;SDS011;7865;50.918;4.510;2023-04-06T02:21:12;18.90;;;10.30;;
15526;SDS011;7865;50.918;4.510;2023-04-06T02:26:15;20.83;;;11.63;;
15526;SDS011;7865;50.918;4.510;2023-04-06T02:31:17;21.40;;;11.50;;
15526;SDS011;7865;50.918;4.510;2023-04-06T02:36:19;20.73;;;10.80;;
15526;SDS011;7865;50.918;4.510;2023-04-06T02:41:21;21.30;;;10.90;;
15526;SDS011;7865;50.918;4.510;2023-04-06T02:46:24;17.97;;;9.80;;
15526;SDS011;7865;50.918;4.510;2023-04-06T02:51:26;18.40;;;9.70;;
15526;SDS011;7865;50.918;4.510;2023-04-06T02:56:37;20.23;;;10.77;;
15526;SDS011;7865;50.918;4.510;2023-04-06T03:01:39;19.43;;;10.43;;
15526;SDS011;7865;50.918;4.510;2023-04-06T03:06:42;19.67;;;11.27;;
15526;SDS011;7865;50.918;4.510;2023-04-06T03:11:54;17.10;;;9.97;;
15526;SDS011;7865;50.918;4.510;2023-04-06T03:16:58;17.03;;;9.80;;
15526;SDS011;7865;50.918;4.510;2023-04-06T03:22:00;17.13;;;10.63;;
15526;SDS011;7865;50.918;4.510;2023-04-06T03:27:02;17.70;;;11.27;;
15526;SDS011;7865;50.918;4.510;2023-04-06T03:32:05;19.33;;;11.13;;
15526;SDS011;7865;50.918;4.510;2023-04-06T03:37:14;21.57;;;10.63;;
15526;SDS011;7865;50.918;4.510;2023-04-06T03:42:23;17.67;;;10.40;;
15526;SDS011;7865;50.918;4.510;2023-04-06T03:47:34;18.13;;;10.27;;
15526;SDS011;7865;50.918;4.510;2023-04-06T03:52:42;17.93;;;10.80;;
15526;SDS011;7865;50.918;4.510;2023-04-06T03:57:44;18.07;;;9.67;;
15526;SDS011;7865;50.918;4.510;2023-04-06T04:02:46;17.60;;;10.80;;
15526;SDS011;7865;50.918;4.510;2023-04-06T04:07:48;20.23;;;10.77;;
15526;SDS011;7865;50.918;4.510;2023-04-06T04:12:50;18.93;;;11.80;;
15526;SDS011;7865;50.918;4.510;2023-04-06T04:17:52;20.20;;;10.93;;
15526;SDS011;7865;50.918;4.510;2023-04-06T04:22:55;17.03;;;10.57;;
15526;SDS011;7865;50.918;4.510;2023-04-06T04:27:57;16.93;;;10.90;;
15526;SDS011;7865;50.918;4.510;2023-04-06T04:32:59;21.93;;;11.53;;
15526;SDS011;7865;50.918;4.510;2023-04-06T04:38:02;26.30;;;13.27;;
15526;SDS011;7865;50.918;4.510;2023-04-06T04:43:07;24.10;;;11.50;;
15526;SDS011;7865;50.918;4.510;2023-04-06T04:48:09;19.33;;;11.77;;
15526;SDS011;7865;50.918;4.510;2023-04-06T04:53:32;17.53;;;11.50;;
15526;SDS011;7865;50.918;4.510;2023-04-06T04:58:43;19.00;;;11.17;;
15526;SDS011;7865;50.918;4.510;2023-04-06T05:03:46;19.23;;;10.53;;
15526;SDS011;7865;50.918;4.510;2023-04-06T05:08:51;19.67;;;11.53;;
15526;SDS011;7865;50.918;4.510;2023-04-06T05:13:54;22.53;;;12.30;;
15526;SDS011;7865;50.918;4.510;2023-04-06T05:18:58;22.97;;;11.87;;
15526;SDS011;7865;50.918;4.510;2023-04-06T05:24:10;20.50;;;12.47;;
15526;SDS011;7865;50.918;4.510;2023-04-06T05:29:14;19.80;;;10.93;;
15526;SDS011;7865;50.918;4.510;2023-04-06T05:34:20;18.73;;;12.00;;
15526;SDS011;7865;50.918;4.510;2023-04-06T05:39:24;18.90;;;10.87;;
15526;SDS011;7865;50.918;4.510;2023-04-06T05:44:28;21.23;;;11.67;;
15526;SDS011;7865;50.918;4.510;2023-04-06T05:49:41;18.77;;;11.30;;
15526;SDS011;7865;50.918;4.510;2023-04-06T05:54:49;17.00;;;11.70;;
15526;SDS011;7865;50.918;4.510;2023-04-06T05:59:52;18.57;;;11.53;;
15526;SDS011;7865;50.918;4.510;2023-04-06T06:04:56;21.03;;;12.53;;
15526;SDS011;7865;50.918;4.510;2023-04-06T06:10:01;22.90;;;12.80;;
15526;SDS011;7865;50.918;4.510;2023-04-06T06:15:07;21.63;;;12.50;;
15526;SDS011;7865;50.918;4.510;2023-04-06T06:20:15;22.50;;;13.83;;
15526;SDS011;7865;50.918;4.510;2023-04-06T06:25:18;26.13;;;12.17;;
15526;SDS011;7865;50.918;4.510;2023-04-06T06:30:22;24.43;;;13.47;;
15526;SDS011;7865;50.918;4.510;2023-04-06T06:35:25;23.47;;;12.73;;
15526;SDS011;7865;50.918;4.510;2023-04-06T06:40:28;20.80;;;13.10;;
15526;SDS011;7865;50.918;4.510;2023-04-06T06:45:31;22.57;;;12.83;;
15526;SDS011;7865;50.918;4.510;2023-04-06T06:50:33;24.23;;;13.83;;
15526;SDS011;7865;50.918;4.510;2023-04-06T06:55:35;21.40;;;12.00;;
15526;SDS011;7865;50.918;4.510;2023-04-06T07:00:37;19.43;;;12.10;;
15526;SDS011;7865;50.918;4.510;2023-04-06T07:05:46;22.17;;;11.80;;
15526;SDS011;7865;50.918;4.510;2023-04-06T07:10:56;19.10;;;11.43;;
15526;SDS011;7865;50.918;4.510;2023-04-06T07:15:58;18.97;;;11.40;;
15526;SDS011;7865;50.918;4.510;2023-04-06T07:21:02;19.50;;;12.63;;
15526;SDS011;7865;50.918;4.510;2023-04-06T07:26:04;21.03;;;12.57;;
15526;SDS011;7865;50.918;4.510;2023-04-06T07:31:06;18.60;;;11.83;;
15526;SDS011;7865;50.918;4.510;2023-04-06T07:36:09;22.83;;;13.53;;
15526;SDS011;7865;50.918;4.510;2023-04-06T07:41:11;18.40;;;11.20;;
15526;SDS011;7865;50.918;4.510;2023-04-06T07:46:14;21.80;;;12.60;;
15526;SDS011;7865;50.918;4.510;2023-04-06T07:51:16;20.13;;;13.47;;
15526;SDS011;7865;50.918;4.510;2023-04-06T07:56:20;17.70;;;11.67;;
15526;SDS011;7865;50.918;4.510;2023-04-06T08:01:23;18.47;;;11.50;;
15526;SDS011;7865;50.918;4.510;2023-04-06T08:06:25;15.23;;;9.13;;
15526;SDS011;7865;50.918;4.510;2023-04-06T08:11:28;13.70;;;8.17;;
15526;SDS011;7865;50.918;4.510;2023-04-06T08:16:30;14.27;;;8.10;;
15526;SDS011;7865;50.918;4.510;2023-04-06T08:21:32;11.40;;;8.17;;
15526;SDS011;7865;50.918;4.510;2023-04-06T08:26:35;14.20;;;8.10;;
15526;SDS011;7865;50.918;4.510;2023-04-06T08:31:37;14.13;;;8.17;;
15526;SDS011;7865;50.918;4.510;2023-04-06T08:36:39;11.93;;;7.57;;
15526;SDS011;7865;50.918;4.510;2023-04-06T08:41:42;17.00;;;7.80;;
15526;SDS011;7865;50.918;4.510;2023-04-06T08:46:45;12.03;;;7.13;;
15526;SDS011;7865;50.918;4.510;2023-04-06T08:51:48;13.07;;;8.00;;
15526;SDS011;7865;50.918;4.510;2023-04-06T08:56:51;10.30;;;7.13;;
15526;SDS011;7865;50.918;4.510;2023-04-06T09:01:54;11.23;;;7.60;;
15526;SDS011;7865;50.918;4.510;2023-04-06T09:06:57;10.57;;;8.03;;
15526;SDS011;7865;50.918;4.510;2023-04-06T09:11:59;10.50;;;6.97;;
15526;SDS011;7865;50.918;4.510;2023-04-06T09:17:07;12.90;;;7.70;;
15526;SDS011;7865;50.918;4.510;2023-04-06T09:22:09;8.40;;;6.27;;
15526;SDS011;7865;50.918;4.510;2023-04-06T09:27:12;12.30;;;7.40;;
15526;SDS011;7865;50.918;4.510;2023-04-06T09:32:15;13.77;;;9.07;;
15526;SDS011;7865;50.918;4.510;2023-04-06T09:37:18;15.23;;;8.73;;
15526;SDS011;7865;50.918;4.510;2023-04-06T09:42:24;15.67;;;9.07;;
15526;SDS011;7865;50.918;4.510;2023-04-06T09:47:27;15.17;;;9.77;;
15526;SDS011;7865;50.918;4.510;2023-04-06T09:52:36;13.07;;;8.93;;
15526;SDS011;7865;50.918;4.510;2023-04-06T09:58:04;13.03;;;10.33;;
15526;SDS011;7865;50.918;4.510;2023-04-06T10:08:28;15.37;;;8.97;;
15526;SDS011;7865;50.918;4.510;2023-04-06T10:13:33;15.37;;;10.40;;
15526;SDS011;7865;50.918;4.510;2023-04-06T10:18:36;13.57;;;8.97;;
15526;SDS011;7865;50.918;4.510;2023-04-06T10:23:51;13.60;;;7.97;;
15526;SDS011;7865;50.918;4.510;2023-04-06T10:29:01;12.90;;;8.60;;
15526;SDS011;7865;50.918;4.510;2023-04-06T10:34:05;11.80;;;8.30;;
15526;SDS011;7865;50.918;4.510;2023-04-06T10:39:08;11.40;;;8.47;;
15526;SDS011;7865;50.918;4.510;2023-04-06T10:44:17;12.30;;;8.30;;
15526;SDS011;7865;50.918;4.510;2023-04-06T10:49:21;10.73;;;8.00;;
15526;SDS011;7865;50.918;4.510;2023-04-06T10:54:27;11.53;;;8.93;;
15526;SDS011;7865;50.918;4.510;2023-04-06T10:59:29;16.73;;;9.97;;
15526;SDS011;7865;50.918;4.510;2023-04-06T11:04:32;17.00;;;9.27;;
15526;SDS011;7865;50.918;4.510;2023-04-06T11:09:34;16.30;;;10.37;;
15526;SDS011;7865;50.918;4.510;2023-04-06T11:14:38;15.03;;;9.90;;
15526;SDS011;7865;50.918;4.510;2023-04-06T11:19:40;13.40;;;9.03;;
15526;SDS011;7865;50.918;4.510;2023-04-06T11:24:42;12.63;;;9.30;;
15526;SDS011;7865;50.918;4.510;2023-04-06T11:29:44;13.30;;;9.50;;
15526;SDS011;7865;50.918;4.510;2023-04-06T11:34:49;14.80;;;8.50;;
15526;SDS011;7865;50.918;4.510;2023-04-06T11:39:52;15.23;;;10.23;;
15526;SDS011;7865;50.918;4.510;2023-04-06T11:44:56;14.83;;;9.73;;
15526;SDS011;7865;50.918;4.510;2023-04-06T11:50:06;12.00;;;8.83;;
15526;SDS011;7865;50.918;4.510;2023-04-06T11:55:10;12.00;;;8.20;;
15526;SDS011;7865;50.918;4.510;2023-04-06T12:00:14;12.60;;;9.00;;
15526;SDS011;7865;50.918;4.510;2023-04-06T12:05:17;11.37;;;8.60;;
15526;SDS011;7865;50.918;4.510;2023-04-06T12:10:19;12.40;;;9.53;;
15526;SDS011;7865;50.918;4.510;2023-04-06T12:15:21;10.60;;;6.90;;
15526;SDS011;7865;50.918;4.510;2023-04-06T12:20:23;12.93;;;8.53;;
15526;SDS011;7865;50.918;4.510;2023-04-06T12:25:27;11.30;;;8.53;;
15526;SDS011;7865;50.918;4.510;2023-04-06T12:30:31;14.03;;;8.67;;
15526;SDS011;7865;50.918;4.510;2023-04-06T12:35:34;9.83;;;8.00;;
15526;SDS011;7865;50.918;4.510;2023-04-06T12:40:37;11.40;;;8.93;;
15526;SDS011;7865;50.918;4.510;2023-04-06T12:45:40;11.57;;;8.83;;
15526;SDS011;7865;50.918;4.510;2023-04-06T12:50:42;12.83;;;8.70;;
15526;SDS011;7865;50.918;4.510;2023-04-06T12:55:45;11.40;;;7.90;;
15526;SDS011;7865;50.918;4.510;2023-04-06T13:00:47;12.53;;;7.33;;
15526;SDS011;7865;50.918;4.510;2023-04-06T13:05:50;8.80;;;7.40;;
15526;SDS011;7865;50.918;4.510;2023-04-06T13:10:52;8.83;;;6.90;;
15526;SDS011;7865;50.918;4.510;2023-04-06T13:15:59;11.17;;;7.97;;
15526;SDS011;7865;50.918;4.510;2023-04-06T13:21:05;11.30;;;8.07;;
15526;SDS011;7865;50.918;4.510;2023-04-06T13:26:08;10.23;;;7.70;;
15526;SDS011;7865;50.918;4.510;2023-04-06T13:31:10;10.97;;;7.93;;
15526;SDS011;7865;50.918;4.510;2023-04-06T13:36:13;12.37;;;9.10;;
15526;SDS011;7865;50.918;4.510;2023-04-06T13:41:19;15.40;;;8.77;;
15526;SDS011;7865;50.918;4.510;2023-04-06T13:46:22;12.13;;;9.20;;
15526;SDS011;7865;50.918;4.510;2023-04-06T13:51:25;14.20;;;9.30;;
15526;SDS011;7865;50.918;4.510;2023-04-06T13:56:28;14.10;;;9.67;;
15526;SDS011;7865;50.918;4.510;2023-04-06T14:01:30;12.53;;;8.97;;
15526;SDS011;7865;50.918;4.510;2023-04-06T14:06:32;14.83;;;10.90;;
15526;SDS011;7865;50.918;4.510;2023-04-06T14:11:34;15.73;;;10.47;;
15526;SDS011;7865;50.918;4.510;2023-04-06T14:16:38;12.73;;;9.40;;
15526;SDS011;7865;50.918;4.510;2023-04-06T14:21:40;11.17;;;9.37;;
15526;SDS011;7865;50.918;4.510;2023-04-06T14:26:46;13.43;;;9.43;;
15526;SDS011;7865;50.918;4.510;2023-04-06T14:31:48;13.17;;;9.43;;
15526;SDS011;7865;50.918;4.510;2023-04-06T14:36:50;12.93;;;8.97;;
15526;SDS011;7865;50.918;4.510;2023-04-06T14:41:52;11.27;;;8.67;;
15526;SDS011;7865;50.918;4.510;2023-04-06T14:46:54;12.07;;;9.17;;
15526;SDS011;7865;50.918;4.510;2023-04-06T14:51:56;13.60;;;9.50;;
15526;SDS011;7865;50.918;4.510;2023-04-06T14:56:59;13.33;;;9.63;;
15526;SDS011;7865;50.918;4.510;2023-04-06T15:02:02;13.60;;;9.60;;
15526;SDS011;7865;50.918;4.510;2023-04-06T15:07:05;13.50;;;9.63;;
15526;SDS011;7865;50.918;4.510;2023-04-06T15:12:07;20.90;;;11.67;;
15526;SDS011;7865;50.918;4.510;2023-04-06T15:17:09;14.27;;;11.27;;
15526;SDS011;7865;50.918;4.510;2023-04-06T15:22:11;12.37;;;10.37;;
15526;SDS011;7865;50.918;4.510;2023-04-06T15:27:13;16.53;;;11.77;;
15526;SDS011;7865;50.918;4.510;2023-04-06T15:32:15;19.10;;;12.07;;
15526;SDS011;7865;50.918;4.510;2023-04-06T15:37:17;17.43;;;12.50;;
15526;SDS011;7865;50.918;4.510;2023-04-06T15:42:19;15.77;;;11.57;;
15526;SDS011;7865;50.918;4.510;2023-04-06T15:47:21;16.03;;;12.00;;
15526;SDS011;7865;50.918;4.510;2023-04-06T15:52:24;16.63;;;13.33;;
15526;SDS011;7865;50.918;4.510;2023-04-06T15:57:26;21.07;;;12.03;;
15526;SDS011;7865;50.918;4.510;2023-04-06T16:02:28;16.60;;;13.03;;
15526;SDS011;7865;50.918;4.510;2023-04-06T16:07:30;24.80;;;14.50;;
15526;SDS011;7865;50.918;4.510;2023-04-06T16:12:33;19.17;;;12.47;;
15526;SDS011;7865;50.918;4.510;2023-04-06T16:17:35;22.57;;;13.77;;
15526;SDS011;7865;50.918;4.510;2023-04-06T16:22:37;17.40;;;12.60;;
15526;SDS011;7865;50.918;4.510;2023-04-06T16:27:39;19.07;;;12.83;;
15526;SDS011;7865;50.918;4.510;2023-04-06T16:32:41;16.83;;;13.40;;
15526;SDS011;7865;50.918;4.510;2023-04-06T16:37:43;17.20;;;13.57;;
15526;SDS011;7865;50.918;4.510;2023-04-06T16:42:47;19.40;;;14.23;;
15526;SDS011;7865;50.918;4.510;2023-04-06T16:47:49;22.93;;;15.47;;
15526;SDS011;7865;50.918;4.510;2023-04-06T16:52:51;20.37;;;14.40;;
15526;SDS011;7865;50.918;4.510;2023-04-06T16:57:54;22.23;;;15.07;;
15526;SDS011;7865;50.918;4.510;2023-04-06T17:02:56;23.77;;;15.53;;
15526;SDS011;7865;50.918;4.510;2023-04-06T17:07:59;22.47;;;15.40;;
15526;SDS011;7865;50.918;4.510;2023-04-06T17:13:01;27.17;;;14.70;;
15526;SDS011;7865;50.918;4.510;2023-04-06T17:18:03;21.00;;;15.90;;
15526;SDS011;7865;50.918;4.510;2023-04-06T17:23:05;21.53;;;15.20;;
15526;SDS011;7865;50.918;4.510;2023-04-06T17:28:07;23.50;;;13.33;;
15526;SDS011;7865;50.918;4.510;2023-04-06T17:33:09;22.60;;;10.33;;
15526;SDS011;7865;50.918;4.510;2023-04-06T17:38:13;17.33;;;7.90;;
15526;SDS011;7865;50.918;4.510;2023-04-06T17:43:14;15.67;;;7.67;;
15526;SDS011;7865;50.918;4.510;2023-04-06T17:48:18;15.80;;;7.10;;
15526;SDS011;7865;50.918;4.510;2023-04-06T17:53:20;23.07;;;7.47;;
15526;SDS011;7865;50.918;4.510;2023-04-06T17:58:22;18.83;;;6.70;;
15526;SDS011;7865;50.918;4.510;2023-04-06T18:03:24;14.30;;;6.20;;
15526;SDS011;7865;50.918;4.510;2023-04-06T18:08:26;14.57;;;5.60;;
15526;SDS011;7865;50.918;4.510;2023-04-06T18:13:28;16.23;;;6.93;;
15526;SDS011;7865;50.918;4.510;2023-04-06T18:18:30;18.93;;;6.50;;
15526;SDS011;7865;50.918;4.510;2023-04-06T18:23:33;14.80;;;7.00;;
15526;SDS011;7865;50.918;4.510;2023-04-06T18:28:35;20.03;;;6.60;;
15526;SDS011;7865;50.918;4.510;2023-04-06T18:33:37;17.33;;;7.30;;
15526;SDS011;7865;50.918;4.510;2023-04-06T18:38:40;25.57;;;8.00;;
15526;SDS011;7865;50.918;4.510;2023-04-06T18:43:43;20.67;;;8.13;;
15526;SDS011;7865;50.918;4.510;2023-04-06T18:48:45;25.23;;;8.43;;
15526;SDS011;7865;50.918;4.510;2023-04-06T18:53:47;20.07;;;9.53;;
15526;SDS011;7865;50.918;4.510;2023-04-06T18:58:49;20.60;;;7.97;;
15526;SDS011;7865;50.918;4.510;2023-04-06T19:03:51;17.63;;;6.13;;
15526;SDS011;7865;50.918;4.510;2023-04-06T19:08:54;15.03;;;5.47;;
15526;SDS011;7865;50.918;4.510;2023-04-06T19:13:57;9.80;;;4.27;;
15526;SDS011;7865;50.918;4.510;2023-04-06T19:18:59;9.87;;;4.33;;
15526;SDS011;7865;50.918;4.510;2023-04-06T19:24:01;6.20;;;3.53;;
15526;SDS011;7865;50.918;4.510;2023-04-06T19:29:03;9.37;;;4.53;;
15526;SDS011;7865;50.918;4.510;2023-04-06T19:34:05;9.27;;;5.33;;
15526;SDS011;7865;50.918;4.510;2023-04-06T19:39:08;9.17;;;6.20;;
15526;SDS011;7865;50.918;4.510;2023-04-06T19:44:10;12.20;;;7.57;;
15526;SDS011;7865;50.918;4.510;2023-04-06T19:49:12;16.37;;;8.03;;
15526;SDS011;7865;50.918;4.510;2023-04-06T19:54:14;11.83;;;8.20;;
15526;SDS011;7865;50.918;4.510;2023-04-06T19:59:16;14.43;;;8.67;;
15526;SDS011;7865;50.918;4.510;2023-04-06T20:04:19;21.47;;;9.03;;
15526;SDS011;7865;50.918;4.510;2023-04-06T20:09:21;12.87;;;8.47;;
15526;SDS011;7865;50.918;4.510;2023-04-06T20:14:23;13.87;;;7.63;;
15526;SDS011;7865;50.918;4.510;2023-04-06T20:19:27;18.80;;;9.50;;
15526;SDS011;7865;50.918;4.510;2023-04-06T20:24:29;13.73;;;8.43;;
15526;SDS011;7865;50.918;4.510;2023-04-06T20:29:31;19.17;;;9.40;;
15526;SDS011;7865;50.918;4.510;2023-04-06T20:34:33;15.10;;;8.23;;
15526;SDS011;7865;50.918;4.510;2023-04-06T20:39:35;15.43;;;7.57;;
15526;SDS011;7865;50.918;4.510;2023-04-06T20:44:38;15.93;;;7.53;;
15526;SDS011;7865;50.918;4.510;2023-04-06T20:49:40;11.20;;;7.13;;
15526;SDS011;7865;50.918;4.510;2023-04-06T20:54:42;11.17;;;7.10;;
15526;SDS011;7865;50.918;4.510;2023-04-06T20:59:44;14.03;;;7.00;;
15526;SDS011;7865;50.918;4.510;2023-04-06T21:04:46;10.27;;;5.60;;
15526;SDS011;7865;50.918;4.510;2023-04-06T21:09:48;7.73;;;4.87;;
15526;SDS011;7865;50.918;4.510;2023-04-06T21:14:50;9.47;;;5.17;;
15526;SDS011;7865;50.918;4.510;2023-04-06T21:19:53;6.53;;;4.50;;
15526;SDS011;7865;50.918;4.510;2023-04-06T21:24:55;8.73;;;5.10;;
15526;SDS011;7865;50.918;4.510;2023-04-06T21:29:57;8.87;;;4.70;;
15526;SDS011;7865;50.918;4.510;2023-04-06T21:34:59;6.13;;;3.97;;
15526;SDS011;7865;50.918;4.510;2023-04-06T21:40:01;7.37;;;4.53;;
15526;SDS011;7865;50.918;4.510;2023-04-06T21:45:04;13.57;;;6.60;;
15526;SDS011;7865;50.918;4.510;2023-04-06T21:50:07;17.57;;;8.40;;
15526;SDS011;7865;50.918;4.510;2023-04-06T21:55:09;11.97;;;8.30;;
15526;SDS011;7865;50.918;4.510;2023-04-06T22:00:12;16.50;;;8.57;;
15526;SDS011;7865;50.918;4.510;2023-04-06T22:05:17;16.47;;;9.50;;
15526;SDS011;7865;50.918;4.510;2023-04-06T22:10:19;21.53;;;10.33;;
15526;SDS011;7865;50.918;4.510;2023-04-06T22:15:21;19.20;;;10.30;;
15526;SDS011;7865;50.918;4.510;2023-04-06T22:20:23;19.70;;;9.90;;
15526;SDS011;7865;50.918;4.510;2023-04-06T22:25:25;15.90;;;9.67;;
15526;SDS011;7865;50.918;4.510;2023-04-06T22:30:27;17.20;;;9.50;;
15526;SDS011;7865;50.918;4.510;2023-04-06T22:35:29;17.37;;;10.90;;
15526;SDS011;7865;50.918;4.510;2023-04-06T22:40:31;15.53;;;8.57;;
15526;SDS011;7865;50.918;4.510;2023-04-06T22:45:33;23.07;;;12.17;;
15526;SDS011;7865;50.918;4.510;2023-04-06T22:50:35;21.47;;;11.80;;
15526;SDS011;7865;50.918;4.510;2023-04-06T22:55:38;23.20;;;11.43;;
15526;SDS011;7865;50.918;4.510;2023-04-06T23:00:41;18.10;;;10.97;;
15526;SDS011;7865;50.918;4.510;2023-04-06T23:05:43;15.30;;;9.10;;
15526;SDS011;7865;50.918;4.510;2023-04-06T23:10:45;20.33;;;9.63;;
15526;SDS011;7865;50.918;4.510;2023-04-06T23:15:47;21.20;;;8.27;;
15526;SDS011;7865;50.918;4.510;2023-04-06T23:20:49;15.77;;;8.60;;
15526;SDS011;7865;50.918;4.510;2023-04-06T23:25:51;19.10;;;8.23;;
15526;SDS011;7865;50.918;4.510;2023-04-06T23:30:53;23.27;;;9.13;;
15526;SDS011;7865;50.918;4.510;2023-04-06T23:35:55;21.43;;;9.80;;
15526;SDS011;7865;50.918;4.510;2023-04-06T23:40:57;20.67;;;11.20;;
15526;SDS011;7865;50.918;4.510;2023-04-06T23:45:59;23.70;;;10.97;;
15526;SDS011;7865;50.918;4.510;2023-04-06T23:51:02;22.93;;;11.87;;
15526;SDS011;7865;50.918;4.510;2023-04-06T23:56:04;22.67;;;12.07;;
